Terminal Aerodrome Forecast
Issued by NWS Blacksburg, VA

Home | Current Version | Previous Version | Text Only | Print | Product List | Glossary On
Versions: 1 2 3 4 5 6 7 8 9 10 11 12 13 14 15 16
000
FTUS41 KRNK 231722
TAFLYH
TAF
KLYH 231722Z 2318/2418 34007KT P6SM VCTS FEW025 BKN040CB
      TEMPO 2319/2321 4SM -SHRA OVC025
     FM232300 33004KT P6SM VCSH BKN060
     FM240000 VRB03KT P6SM SCT060
     FM240700 36004KT P6SM BKN050
     FM241300 36004KT P6SM SCT050 BKN100=

USA.gov is the U.S. government's official web portal to all federal, state and local government web resources and services.